sensor_id;sensor_type;location;lat;lon;timestamp;pressure;altitude;pressure_sealevel;temperature;humidity
23427;BME280;41148;45.420;10.952;2023-02-18T00:01:27;102084.00;;;6.64;93.11
23427;BME280;41148;45.420;10.952;2023-02-18T00:03:57;102089.25;;;6.60;93.38
23427;BME280;41148;45.420;10.952;2023-02-18T00:06:31;102085.75;;;6.63;93.96
23427;BME280;41148;45.420;10.952;2023-02-18T00:08:59;102077.78;;;6.58;92.41
23427;BME280;41148;45.420;10.952;2023-02-18T00:11:30;102079.47;;;6.52;92.60
23427;BME280;41148;45.420;10.952;2023-02-18T00:14:00;102078.66;;;6.57;92.44
23427;BME280;41148;45.420;10.952;2023-02-18T00:16:29;102071.50;;;6.50;91.71
23427;BME280;41148;45.420;10.952;2023-02-18T00:18:59;102079.31;;;6.38;92.86
23427;BME280;41148;45.420;10.952;2023-02-18T00:21:27;102064.34;;;6.43;93.25
23427;BME280;41148;45.420;10.952;2023-02-18T00:23:54;102069.75;;;6.51;92.68
23427;BME280;41148;45.420;10.952;2023-02-18T00:26:23;102066.25;;;6.55;92.58
23427;BME280;41148;45.420;10.952;2023-02-18T00:28:50;102060.84;;;6.46;92.55
23427;BME280;41148;45.420;10.952;2023-02-18T00:31:22;102065.03;;;6.25;93.96
23427;BME280;41148;45.420;10.952;2023-02-18T00:33:51;102060.72;;;6.32;92.99
23427;BME280;41148;45.420;10.952;2023-02-18T00:36:21;102072.19;;;6.32;92.51
23427;BME280;41148;45.420;10.952;2023-02-18T00:38:54;102078.31;;;6.28;93.68
23427;BME280;41148;45.420;10.952;2023-02-18T00:41:23;102078.31;;;6.28;92.91
23427;BME280;41148;45.420;10.952;2023-02-18T00:43:51;102070.41;;;6.33;93.90
23427;BME280;41148;45.420;10.952;2023-02-18T00:46:20;102078.47;;;6.44;92.86
23427;BME280;41148;45.420;10.952;2023-02-18T00:48:48;102081.13;;;6.44;92.52
23427;BME280;41148;45.420;10.952;2023-02-18T00:51:15;102069.41;;;6.22;94.26
23427;BME280;41148;45.420;10.952;2023-02-18T00:53:43;102076.59;;;6.34;94.02
23427;BME280;41148;45.420;10.952;2023-02-18T00:56:10;102080.91;;;6.25;95.31
23427;BME280;41148;45.420;10.952;2023-02-18T00:58:38;102074.56;;;6.08;95.36
23427;BME280;41148;45.420;10.952;2023-02-18T01:01:06;102067.56;;;6.15;94.76
23427;BME280;41148;45.420;10.952;2023-02-18T01:03:39;102060.28;;;5.97;94.81
23427;BME280;41148;45.420;10.952;2023-02-18T01:06:08;102071.72;;;5.96;95.12
23427;BME280;41148;45.420;10.952;2023-02-18T01:08:36;102075.38;;;6.04;94.47
23427;BME280;41148;45.420;10.952;2023-02-18T01:11:07;102066.50;;;5.99;95.20
23427;BME280;41148;45.420;10.952;2023-02-18T01:13:35;102069.16;;;6.02;95.90
23427;BME280;41148;45.420;10.952;2023-02-18T01:16:06;102070.84;;;5.97;95.13
23427;BME280;41148;45.420;10.952;2023-02-18T01:18:35;102062.97;;;5.98;95.04
23427;BME280;41148;45.420;10.952;2023-02-18T01:21:07;102055.94;;;6.02;94.20
23427;BME280;41148;45.420;10.952;2023-02-18T01:23:37;102065.59;;;5.98;93.45
23427;BME280;41148;45.420;10.952;2023-02-18T01:26:06;102066.44;;;5.96;93.24
23427;BME280;41148;45.420;10.952;2023-02-18T01:28:38;102056.59;;;5.87;93.11
23427;BME280;41148;45.420;10.952;2023-02-18T01:31:08;102058.34;;;5.88;91.94
23427;BME280;41148;45.420;10.952;2023-02-18T01:33:37;102054.53;;;5.65;93.51
23427;BME280;41148;45.420;10.952;2023-02-18T01:36:05;102051.03;;;5.67;93.27
23427;BME280;41148;45.420;10.952;2023-02-18T01:38:33;102050.25;;;5.73;92.26
23427;BME280;41148;45.420;10.952;2023-02-18T01:41:01;102046.59;;;5.63;92.59
23427;BME280;41148;45.420;10.952;2023-02-18T01:43:28;102044.88;;;5.68;92.15
23427;BME280;41148;45.420;10.952;2023-02-18T01:46:24;102049.41;;;5.79;92.02
23427;BME280;41148;45.420;10.952;2023-02-18T01:48:54;102049.34;;;5.72;92.63
23427;BME280;41148;45.420;10.952;2023-02-18T01:51:24;102051.97;;;5.71;92.55
23427;BME280;41148;45.420;10.952;2023-02-18T01:54:09;102047.38;;;5.59;93.57
23427;BME280;41148;45.420;10.952;2023-02-18T01:56:48;102042.06;;;5.55;93.90
23427;BME280;41148;45.420;10.952;2023-02-18T01:59:24;102052.63;;;5.56;93.15
23427;BME280;41148;45.420;10.952;2023-02-18T02:01:53;102038.44;;;5.50;93.74
23427;BME280;41148;45.420;10.952;2023-02-18T02:04:22;102050.81;;;5.51;93.95
23427;BME280;41148;45.420;10.952;2023-02-18T02:06:49;102039.44;;;5.56;93.52
23427;BME280;41148;45.420;10.952;2023-02-18T02:09:18;102046.44;;;5.54;93.32
23427;BME280;41148;45.420;10.952;2023-02-18T02:14:49;102038.34;;;5.40;93.63
23427;BME280;41148;45.420;10.952;2023-02-18T02:28:46;102044.53;;;5.44;95.65
23427;BME280;41148;45.420;10.952;2023-02-18T02:36:55;102032.31;;;5.52;95.40
23427;BME280;41148;45.420;10.952;2023-02-18T02:39:38;102027.16;;;5.61;94.75
23427;BME280;41148;45.420;10.952;2023-02-18T02:44:55;102021.78;;;5.55;95.02
23427;BME280;41148;45.420;10.952;2023-02-18T02:50:03;102010.22;;;5.47;95.17
23427;BME280;41148;45.420;10.952;2023-02-18T02:52:55;102007.53;;;5.44;95.18
23427;BME280;41148;45.420;10.952;2023-02-18T02:55:25;102025.16;;;5.45;96.09
23427;BME280;41148;45.420;10.952;2023-02-18T02:57:55;102007.72;;;5.58;96.20
23427;BME280;41148;45.420;10.952;2023-02-18T03:06:11;102006.63;;;5.40;95.37
23427;BME280;41148;45.420;10.952;2023-02-18T03:09:03;102005.53;;;5.28;94.78
23427;BME280;41148;45.420;10.952;2023-02-18T03:14:53;101995.69;;;5.16;94.89
23427;BME280;41148;45.420;10.952;2023-02-18T03:17:37;102004.50;;;5.18;95.05
23427;BME280;41148;45.420;10.952;2023-02-18T03:20:24;101989.38;;;5.06;96.52
23427;BME280;41148;45.420;10.952;2023-02-18T03:22:54;101997.44;;;5.17;96.15
23427;BME280;41148;45.420;10.952;2023-02-18T03:25:23;101996.75;;;5.30;96.02
23427;BME280;41148;45.420;10.952;2023-02-18T03:28:17;102000.38;;;5.37;95.93
23427;BME280;41148;45.420;10.952;2023-02-18T03:30:52;102012.59;;;5.29;95.25
23427;BME280;41148;45.420;10.952;2023-02-18T03:33:25;102003.75;;;5.25;95.11
23427;BME280;41148;45.420;10.952;2023-02-18T03:35:55;102006.28;;;5.19;95.65
23427;BME280;41148;45.420;10.952;2023-02-18T03:40:56;101997.47;;;5.20;95.43
23427;BME280;41148;45.420;10.952;2023-02-18T03:43:24;101987.66;;;5.11;94.02
23427;BME280;41148;45.420;10.952;2023-02-18T03:45:53;102003.66;;;5.21;93.80
23427;BME280;41148;45.420;10.952;2023-02-18T03:48:20;102000.00;;;5.11;93.66
23427;BME280;41148;45.420;10.952;2023-02-18T03:50:51;101998.94;;;5.00;93.71
23427;BME280;41148;45.420;10.952;2023-02-18T03:53:18;102003.31;;;4.98;92.90
23427;BME280;41148;45.420;10.952;2023-02-18T03:55:46;102004.19;;;4.97;94.03
23427;BME280;41148;45.420;10.952;2023-02-18T03:58:13;102006.03;;;5.02;94.28
23427;BME280;41148;45.420;10.952;2023-02-18T04:00:41;102004.34;;;5.06;94.33
23427;BME280;41148;45.420;10.952;2023-02-18T04:03:08;101996.47;;;5.10;93.62
23427;BME280;41148;45.420;10.952;2023-02-18T04:05:35;101999.94;;;5.08;93.00
23427;BME280;41148;45.420;10.952;2023-02-18T04:08:03;101998.78;;;4.91;93.08
23427;BME280;41148;45.420;10.952;2023-02-18T04:10:31;101994.25;;;4.82;93.22
23427;BME280;41148;45.420;10.952;2023-02-18T04:12:59;101997.72;;;4.78;93.73
23427;BME280;41148;45.420;10.952;2023-02-18T04:15:26;102009.72;;;4.59;96.49
23427;BME280;41148;45.420;10.952;2023-02-18T04:17:54;102008.06;;;4.64;96.50
23427;BME280;41148;45.420;10.952;2023-02-18T04:20:21;102007.13;;;4.62;96.65
23427;BME280;41148;45.420;10.952;2023-02-18T04:22:49;102009.81;;;4.64;98.50
23427;BME280;41148;45.420;10.952;2023-02-18T04:25:16;102005.31;;;4.59;100.00
23427;BME280;41148;45.420;10.952;2023-02-18T04:27:44;102008.00;;;4.63;100.00
23427;BME280;41148;45.420;10.952;2023-02-18T04:30:11;102016.75;;;4.58;100.00
23427;BME280;41148;45.420;10.952;2023-02-18T04:32:39;102026.25;;;4.49;100.00
23427;BME280;41148;45.420;10.952;2023-02-18T04:35:07;102021.00;;;4.52;100.00
23427;BME280;41148;45.420;10.952;2023-02-18T04:37:34;102015.84;;;4.58;100.00
23427;BME280;41148;45.420;10.952;2023-02-18T04:40:02;102020.28;;;4.60;100.00
23427;BME280;41148;45.420;10.952;2023-02-18T04:42:30;102018.38;;;4.52;100.00
23427;BME280;41148;45.420;10.952;2023-02-18T04:45:03;102033.09;;;4.39;100.00
23427;BME280;41148;45.420;10.952;2023-02-18T04:47:32;102021.63;;;4.36;100.00
23427;BME280;41148;45.420;10.952;2023-02-18T04:50:00;102011.84;;;4.31;100.00
23427;BME280;41148;45.420;10.952;2023-02-18T04:52:27;102026.88;;;4.36;100.00
23427;BME280;41148;45.420;10.952;2023-02-18T04:54:55;102019.44;;;4.15;100.00
23427;BME280;41148;45.420;10.952;2023-02-18T04:57:22;102017.63;;;4.12;100.00
23427;BME280;41148;45.420;10.952;2023-02-18T04:59:50;102026.41;;;4.11;100.00
23427;BME280;41148;45.420;10.952;2023-02-18T05:02:17;102021.34;;;3.78;100.00
23427;BME280;41148;45.420;10.952;2023-02-18T05:04:45;102025.38;;;4.05;100.00
23427;BME280;41148;45.420;10.952;2023-02-18T05:07:12;102032.56;;;4.12;100.00
23427;BME280;41148;45.420;10.952;2023-02-18T05:09:40;102028.78;;;3.97;100.00
23427;BME280;41148;45.420;10.952;2023-02-18T05:12:07;102025.34;;;4.03;100.00
23427;BME280;41148;45.420;10.952;2023-02-18T05:14:35;102025.94;;;3.88;100.00
23427;BME280;41148;45.420;10.952;2023-02-18T05:17:02;102036.59;;;3.94;100.00
23427;BME280;41148;45.420;10.952;2023-02-18T05:19:30;102033.91;;;3.91;100.00
23427;BME280;41148;45.420;10.952;2023-02-18T05:21:57;102033.38;;;4.08;100.00
23427;BME280;41148;45.420;10.952;2023-02-18T05:24:25;102013.19;;;4.10;100.00
23427;BME280;41148;45.420;10.952;2023-02-18T05:26:52;102023.13;;;4.24;100.00
23427;BME280;41148;45.420;10.952;2023-02-18T05:29:20;102030.94;;;4.18;100.00
23427;BME280;41148;45.420;10.952;2023-02-18T05:31:47;102026.41;;;4.11;100.00
23427;BME280;41148;45.420;10.952;2023-02-18T05:34:15;102023.59;;;4.02;100.00
23427;BME280;41148;45.420;10.952;2023-02-18T05:36:42;102031.81;;;4.17;100.00
23427;BME280;41148;45.420;10.952;2023-02-18T05:39:10;102021.34;;;4.22;100.00
23427;BME280;41148;45.420;10.952;2023-02-18T05:41:38;102036.31;;;4.24;100.00
23427;BME280;41148;45.420;10.952;2023-02-18T05:44:05;102032.63;;;4.15;100.00
23427;BME280;41148;45.420;10.952;2023-02-18T05:46:51;102021.72;;;3.96;100.00
23427;BME280;41148;45.420;10.952;2023-02-18T05:49:18;102033.59;;;4.18;100.00
23427;BME280;41148;45.420;10.952;2023-02-18T05:51:48;102034.47;;;4.19;100.00
23427;BME280;41148;45.420;10.952;2023-02-18T05:54:15;102027.53;;;4.24;100.00
23427;BME280;41148;45.420;10.952;2023-02-18T05:56:43;102045.09;;;4.23;100.00
23427;BME280;41148;45.420;10.952;2023-02-18T05:59:10;102047.88;;;4.31;100.00
23427;BME280;41148;45.420;10.952;2023-02-18T06:01:38;102062.13;;;4.39;100.00
23427;BME280;41148;45.420;10.952;2023-02-18T06:04:05;102043.63;;;4.38;100.00
23427;BME280;41148;45.420;10.952;2023-02-18T06:06:34;102057.47;;;4.26;100.00
23427;BME280;41148;45.420;10.952;2023-02-18T06:09:02;102055.63;;;4.22;100.00
23427;BME280;41148;45.420;10.952;2023-02-18T06:11:30;102052.56;;;4.00;100.00
23427;BME280;41148;45.420;10.952;2023-02-18T06:13:58;102052.63;;;4.05;100.00
23427;BME280;41148;45.420;10.952;2023-02-18T06:16:26;102067.09;;;4.24;100.00
23427;BME280;41148;45.420;10.952;2023-02-18T06:18:54;102047.44;;;4.08;100.00
23427;BME280;41148;45.420;10.952;2023-02-18T06:21:21;102068.34;;;3.99;100.00
23427;BME280;41148;45.420;10.952;2023-02-18T06:23:49;102051.81;;;4.06;100.00
23427;BME280;41148;45.420;10.952;2023-02-18T06:26:17;102072.38;;;4.24;100.00
23427;BME280;41148;45.420;10.952;2023-02-18T06:28:44;102061.69;;;4.16;100.00
23427;BME280;41148;45.420;10.952;2023-02-18T06:31:13;102071.06;;;4.03;100.00
23427;BME280;41148;45.420;10.952;2023-02-18T06:33:40;102066.44;;;3.92;100.00
23427;BME280;41148;45.420;10.952;2023-02-18T06:36:10;102070.09;;;3.97;100.00
23427;BME280;41148;45.420;10.952;2023-02-18T06:38:40;102078.06;;;4.01;100.00
23427;BME280;41148;45.420;10.952;2023-02-18T06:41:08;102066.56;;;3.96;100.00
23427;BME280;41148;45.420;10.952;2023-02-18T06:43:36;102071.09;;;4.05;100.00
23427;BME280;41148;45.420;10.952;2023-02-18T06:46:04;102073.50;;;3.93;100.00
23427;BME280;41148;45.420;10.952;2023-02-18T06:48:32;102071.50;;;3.81;100.00
23427;BME280;41148;45.420;10.952;2023-02-18T06:51:00;102085.47;;;3.77;100.00
23427;BME280;41148;45.420;10.952;2023-02-18T06:53:27;102085.19;;;3.66;100.00
23427;BME280;41148;45.420;10.952;2023-02-18T06:55:54;102086.19;;;3.70;100.00
23427;BME280;41148;45.420;10.952;2023-02-18T06:58:22;102071.81;;;3.96;100.00
23427;BME280;41148;45.420;10.952;2023-02-18T07:00:49;102081.59;;;4.02;100.00
23427;BME280;41148;45.420;10.952;2023-02-18T07:03:17;102080.19;;;4.18;100.00
23427;BME280;41148;45.420;10.952;2023-02-18T07:05:44;102072.78;;;4.00;100.00
23427;BME280;41148;45.420;10.952;2023-02-18T07:08:12;102082.47;;;4.02;100.00
23427;BME280;41148;45.420;10.952;2023-02-18T07:10:39;102078.25;;;4.11;100.00
23427;BME280;41148;45.420;10.952;2023-02-18T07:13:07;102088.97;;;4.17;100.00
23427;BME280;41148;45.420;10.952;2023-02-18T07:15:34;102084.19;;;3.99;100.00
23427;BME280;41148;45.420;10.952;2023-02-18T07:18:01;102069.88;;;3.88;100.00
23427;BME280;41148;45.420;10.952;2023-02-18T07:20:29;102081.81;;;4.13;100.00
23427;BME280;41148;45.420;10.952;2023-02-18T07:22:57;102086.00;;;4.03;100.00
23427;BME280;41148;45.420;10.952;2023-02-18T07:25:24;102095.00;;;4.13;100.00
23427;BME280;41148;45.420;10.952;2023-02-18T07:27:52;102089.91;;;4.22;100.00
23427;BME280;41148;45.420;10.952;2023-02-18T07:30:19;102104.16;;;4.30;100.00
23427;BME280;41148;45.420;10.952;2023-02-18T07:32:47;102110.50;;;4.38;100.00
23427;BME280;41148;45.420;10.952;2023-02-18T07:35:16;102100.56;;;4.25;100.00
23427;BME280;41148;45.420;10.952;2023-02-18T07:37:47;102109.38;;;4.27;100.00
23427;BME280;41148;45.420;10.952;2023-02-18T07:40:18;102099.06;;;4.39;100.00
23427;BME280;41148;45.420;10.952;2023-02-18T07:42:46;102101.78;;;4.44;100.00
23427;BME280;41148;45.420;10.952;2023-02-18T07:45:14;102098.56;;;4.58;100.00
23427;BME280;41148;45.420;10.952;2023-02-18T07:47:41;102099.44;;;4.59;100.00
23427;BME280;41148;45.420;10.952;2023-02-18T07:50:09;102097.75;;;4.63;100.00
23427;BME280;41148;45.420;10.952;2023-02-18T07:52:37;102101.28;;;4.63;100.00
23427;BME280;41148;45.420;10.952;2023-02-18T07:55:05;102096.16;;;4.72;100.00
23427;BME280;41148;45.420;10.952;2023-02-18T07:57:32;102090.66;;;4.60;100.00
23427;BME280;41148;45.420;10.952;2023-02-18T08:00:20;102094.81;;;4.46;100.00
23427;BME280;41148;45.420;10.952;2023-02-18T08:02:47;102095.09;;;4.61;100.00
23427;BME280;41148;45.420;10.952;2023-02-18T08:05:15;102098.44;;;4.52;100.00
23427;BME280;41148;45.420;10.952;2023-02-18T08:07:42;102100.09;;;4.46;100.00
23427;BME280;41148;45.420;10.952;2023-02-18T08:10:10;102107.13;;;4.45;100.00
23427;BME280;41148;45.420;10.952;2023-02-18T08:12:37;102103.81;;;4.57;100.00
23427;BME280;41148;45.420;10.952;2023-02-18T08:15:05;102103.88;;;4.60;100.00
23427;BME280;41148;45.420;10.952;2023-02-18T08:17:32;102107.69;;;4.76;100.00
23427;BME280;41148;45.420;10.952;2023-02-18T08:19:59;102096.31;;;4.80;100.00
23427;BME280;41148;45.420;10.952;2023-02-18T08:22:27;102100.75;;;4.82;100.00
23427;BME280;41148;45.420;10.952;2023-02-18T08:24:54;102096.81;;;4.59;100.00
23427;BME280;41148;45.420;10.952;2023-02-18T08:27:23;102098.75;;;4.68;100.00
23427;BME280;41148;45.420;10.952;2023-02-18T08:29:50;102108.63;;;4.79;100.00
23427;BME280;41148;45.420;10.952;2023-02-18T08:32:18;102099.78;;;4.76;100.00
23427;BME280;41148;45.420;10.952;2023-02-18T08:34:45;102099.13;;;4.89;100.00
23427;BME280;41148;45.420;10.952;2023-02-18T08:37:13;102098.34;;;4.93;100.00
23427;BME280;41148;45.420;10.952;2023-02-18T08:39:40;102094.88;;;4.99;100.00
23427;BME280;41148;45.420;10.952;2023-02-18T08:42:07;102095.78;;;5.01;100.00
23427;BME280;41148;45.420;10.952;2023-02-18T08:45:00;102087.69;;;4.90;100.00
23427;BME280;41148;45.420;10.952;2023-02-18T08:47:27;102094.88;;;4.99;100.00
23427;BME280;41148;45.420;10.952;2023-02-18T08:50:15;102093.41;;;5.14;100.00
23427;BME280;41148;45.420;10.952;2023-02-18T08:52:42;102094.69;;;4.88;100.00
23427;BME280;41148;45.420;10.952;2023-02-18T08:55:10;102090.44;;;4.96;100.00
23427;BME280;41148;45.420;10.952;2023-02-18T08:57:38;102089.66;;;5.02;100.00
23427;BME280;41148;45.420;10.952;2023-02-18T09:00:05;102086.19;;;5.04;100.00
23427;BME280;41148;45.420;10.952;2023-02-18T09:02:33;102096.13;;;5.21;100.00
23427;BME280;41148;45.420;10.952;2023-02-18T09:05:00;102093.28;;;5.08;100.00
23427;BME280;41148;45.420;10.952;2023-02-18T09:07:28;102092.16;;;4.93;100.00
23427;BME280;41148;45.420;10.952;2023-02-18T09:09:55;102092.34;;;5.03;100.00
23427;BME280;41148;45.420;10.952;2023-02-18T09:12:22;102106.78;;;5.24;100.00
23427;BME280;41148;45.420;10.952;2023-02-18T09:14:50;102091.63;;;5.12;100.00
23427;BME280;41148;45.420;10.952;2023-02-18T09:17:17;102097.00;;;5.20;100.00
23427;BME280;41148;45.420;10.952;2023-02-18T09:19:45;102086.00;;;5.48;100.00
23427;BME280;41148;45.420;10.952;2023-02-18T09:22:12;102085.00;;;5.40;100.00
23427;BME280;41148;45.420;10.952;2023-02-18T09:24:40;102084.22;;;5.47;100.00
23427;BME280;41148;45.420;10.952;2023-02-18T09:27:08;102083.59;;;5.63;100.00
23427;BME280;41148;45.420;10.952;2023-02-18T09:29:38;102090.31;;;5.41;100.00
23427;BME280;41148;45.420;10.952;2023-02-18T09:32:07;102083.34;;;5.48;100.00
23427;BME280;41148;45.420;10.952;2023-02-18T09:34:35;102079.03;;;5.53;100.00
23427;BME280;41148;45.420;10.952;2023-02-18T09:37:03;102088.06;;;5.69;100.00
23427;BME280;41148;45.420;10.952;2023-02-18T09:39:30;102092.56;;;5.73;100.00
23427;BME280;41148;45.420;10.952;2023-02-18T09:42:06;102080.25;;;5.77;100.00
23427;BME280;41148;45.420;10.952;2023-02-18T09:44:41;102084.66;;;5.76;100.00
23427;BME280;41148;45.420;10.952;2023-02-18T09:49:42;102080.53;;;5.95;100.00
23427;BME280;41148;45.420;10.952;2023-02-18T09:52:16;102078.75;;;5.94;100.00
23427;BME280;41148;45.420;10.952;2023-02-18T09:54:45;102072.56;;;5.92;100.00
23427;BME280;41148;45.420;10.952;2023-02-18T09:57:25;102068.22;;;5.97;100.00
23427;BME280;41148;45.420;10.952;2023-02-18T10:00:05;102069.19;;;6.03;100.00
23427;BME280;41148;45.420;10.952;2023-02-18T10:02:39;102077.63;;;5.78;100.00
23427;BME280;41148;45.420;10.952;2023-02-18T10:05:12;102070.78;;;5.91;100.00
23427;BME280;41148;45.420;10.952;2023-02-18T10:07:41;102079.69;;;5.97;100.00
23427;BME280;41148;45.420;10.952;2023-02-18T10:13:11;102065.63;;;6.00;100.00
23427;BME280;41148;45.420;10.952;2023-02-18T10:15:40;102071.91;;;6.10;100.00
23427;BME280;41148;45.420;10.952;2023-02-18T10:18:20;102074.47;;;6.02;100.00
23427;BME280;41148;45.420;10.952;2023-02-18T10:21:06;102072.91;;;6.18;100.00
23427;BME280;41148;45.420;10.952;2023-02-18T10:23:41;102076.50;;;6.26;100.00
23427;BME280;41148;45.420;10.952;2023-02-18T10:26:14;102067.84;;;6.38;100.00
23427;BME280;41148;45.420;10.952;2023-02-18T10:28:45;102056.28;;;6.31;100.00
23427;BME280;41148;45.420;10.952;2023-02-18T10:31:20;102060.06;;;6.56;100.00
23427;BME280;41148;45.420;10.952;2023-02-18T10:33:54;102055.63;;;6.50;100.00
23427;BME280;41148;45.420;10.952;2023-02-18T10:36:39;102058.28;;;6.53;100.00
23427;BME280;41148;45.420;10.952;2023-02-18T10:48:14;102053.16;;;6.67;100.00
23427;BME280;41148;45.420;10.952;2023-02-18T10:50:23;102044.47;;;6.85;100.00
23427;BME280;41148;45.420;10.952;2023-02-18T10:52:55;102049.63;;;6.70;100.00
23427;BME280;41148;45.420;10.952;2023-02-18T10:55:38;102052.25;;;6.67;100.00
23427;BME280;41148;45.420;10.952;2023-02-18T10:58:32;102039.13;;;6.79;100.00
23427;BME280;41148;45.420;10.952;2023-02-18T11:01:03;102040.09;;;6.92;100.00
23427;BME280;41148;45.420;10.952;2023-02-18T11:03:45;102027.81;;;6.98;100.00
23427;BME280;41148;45.420;10.952;2023-02-18T11:06:31;102018.19;;;7.11;100.00
23427;BME280;41148;45.420;10.952;2023-02-18T11:09:05;102012.72;;;6.88;100.00
23427;BME280;41148;45.420;10.952;2023-02-18T11:11:39;102011.94;;;7.04;100.00
23427;BME280;41148;45.420;10.952;2023-02-18T11:14:12;101999.59;;;7.05;100.00
23427;BME280;41148;45.420;10.952;2023-02-18T11:16:44;101998.75;;;7.09;100.00
23427;BME280;41148;45.420;10.952;2023-02-18T11:19:33;102001.38;;;7.07;100.00
23427;BME280;41148;45.420;10.952;2023-02-18T11:22:15;101996.97;;;7.09;100.00
23427;BME280;41148;45.420;10.952;2023-02-18T11:24:45;101992.63;;;7.19;100.00
23427;BME280;41148;45.420;10.952;2023-02-18T11:30:05;101978.38;;;7.02;100.00
23427;BME280;41148;45.420;10.952;2023-02-18T11:32:34;101982.97;;;7.33;100.00
23427;BME280;41148;45.420;10.952;2023-02-18T11:35:04;101976.91;;;7.50;100.00
23427;BME280;41148;45.420;10.952;2023-02-18T11:37:32;101983.91;;;7.40;100.00
23427;BME280;41148;45.420;10.952;2023-02-18T11:40:03;101981.34;;;7.54;100.00
23427;BME280;41148;45.420;10.952;2023-02-18T11:42:30;101967.22;;;7.61;100.00
23427;BME280;41148;45.420;10.952;2023-02-18T11:44:59;101961.97;;;7.71;100.00
23427;BME280;41148;45.420;10.952;2023-02-18T11:47:35;101957.56;;;7.78;100.00
23427;BME280;41148;45.420;10.952;2023-02-18T11:50:15;101956.66;;;7.68;100.00
23427;BME280;41148;45.420;10.952;2023-02-18T11:52:45;101954.06;;;7.87;100.00
23427;BME280;41148;45.420;10.952;2023-02-18T11:55:17;101947.03;;;7.96;100.00
23427;BME280;41148;45.420;10.952;2023-02-18T11:57:49;101943.47;;;7.99;100.00
23427;BME280;41148;45.420;10.952;2023-02-18T12:00:41;101940.84;;;7.97;100.00
23427;BME280;41148;45.420;10.952;2023-02-18T12:03:29;101948.72;;;7.76;100.00
23427;BME280;41148;45.420;10.952;2023-02-18T12:06:03;101932.84;;;7.85;100.00
23427;BME280;41148;45.420;10.952;2023-02-18T12:08:44;101938.19;;;7.94;100.00
23427;BME280;41148;45.420;10.952;2023-02-18T12:11:25;101931.13;;;8.02;100.00
23427;BME280;41148;45.420;10.952;2023-02-18T12:13:56;101936.47;;;8.25;99.91
23427;BME280;41148;45.420;10.952;2023-02-18T12:16:44;101922.31;;;8.20;99.59
23427;BME280;41148;45.420;10.952;2023-02-18T12:22:07;101909.91;;;8.13;99.15
23427;BME280;41148;45.420;10.952;2023-02-18T12:30:21;101898.41;;;8.23;99.57
23427;BME280;41148;45.420;10.952;2023-02-18T12:47:17;101877.19;;;8.57;98.19
23427;BME280;41148;45.420;10.952;2023-02-18T13:04:18;101841.75;;;8.67;97.61
23427;BME280;41148;45.420;10.952;2023-02-18T13:15:00;101834.59;;;9.07;95.40
23427;BME280;41148;45.420;10.952;2023-02-18T13:17:33;101832.78;;;9.17;93.98
23427;BME280;41148;45.420;10.952;2023-02-18T13:22:59;101826.47;;;9.38;93.11
23427;BME280;41148;45.420;10.952;2023-02-18T13:25:36;101826.56;;;9.16;94.17
23427;BME280;41148;45.420;10.952;2023-02-18T13:28:17;101819.47;;;9.20;94.27
23427;BME280;41148;45.420;10.952;2023-02-18T13:39:20;101798.03;;;9.51;92.11
23427;BME280;41148;45.420;10.952;2023-02-18T13:41:50;101798.91;;;9.51;91.94
23427;BME280;41148;45.420;10.952;2023-02-18T13:46:51;101790.97;;;9.43;91.14
23427;BME280;41148;45.420;10.952;2023-02-18T13:49:22;101775.00;;;9.48;91.07
23427;BME280;41148;45.420;10.952;2023-02-18T13:51:54;101783.78;;;9.61;90.40
23427;BME280;41148;45.420;10.952;2023-02-18T13:54:26;101793.56;;;9.57;90.63
23427;BME280;41148;45.420;10.952;2023-02-18T13:57:02;101768.72;;;9.54;89.94
23427;BME280;41148;45.420;10.952;2023-02-18T13:59:41;101773.22;;;9.49;90.48
23427;BME280;41148;45.420;10.952;2023-02-18T14:04:50;101774.03;;;9.58;89.86
23427;BME280;41148;45.420;10.952;2023-02-18T14:07:26;101775.69;;;9.73;89.24
23427;BME280;41148;45.420;10.952;2023-02-18T14:10:05;101773.03;;;9.73;89.23
23427;BME280;41148;45.420;10.952;2023-02-18T14:12:41;101757.88;;;9.86;88.54
23427;BME280;41148;45.420;10.952;2023-02-18T14:20:47;101758.69;;;9.92;87.65
23427;BME280;41148;45.420;10.952;2023-02-18T14:25:54;101756.81;;;10.07;85.54
23427;BME280;41148;45.420;10.952;2023-02-18T14:31:01;101752.38;;;10.02;86.66
23427;BME280;41148;45.420;10.952;2023-02-18T14:33:31;101729.38;;;9.97;86.67
23427;BME280;41148;45.420;10.952;2023-02-18T14:36:25;101736.34;;;10.12;85.79
23427;BME280;41148;45.420;10.952;2023-02-18T14:39:35;101734.47;;;10.26;85.08
23427;BME280;41148;45.420;10.952;2023-02-18T14:42:30;101725.56;;;10.28;84.48
23427;BME280;41148;45.420;10.952;2023-02-18T14:48:06;101715.88;;;10.18;85.45
23427;BME280;41148;45.420;10.952;2023-02-18T14:50:40;101715.84;;;10.20;85.67
23427;BME280;41148;45.420;10.952;2023-02-18T14:53:19;101711.50;;;10.11;86.63
23427;BME280;41148;45.420;10.952;2023-02-18T14:56:00;101718.59;;;10.14;86.97
23427;BME280;41148;45.420;10.952;2023-02-18T14:58:36;101706.97;;;10.19;86.62
23427;BME280;41148;45.420;10.952;2023-02-18T15:01:17;101701.63;;;10.22;86.17
23427;BME280;41148;45.420;10.952;2023-02-18T15:03:48;101720.06;;;10.45;85.25
23427;BME280;41148;45.420;10.952;2023-02-18T15:06:36;101703.28;;;10.37;85.63
23427;BME280;41148;45.420;10.952;2023-02-18T15:09:20;101707.81;;;10.27;85.27
23427;BME280;41148;45.420;10.952;2023-02-18T15:11:54;101713.22;;;10.17;86.44
23427;BME280;41148;45.420;10.952;2023-02-18T15:14:43;101714.09;;;10.23;85.33